Time;durP1;ratioP1;P1;durP2;ratioP2;P2;SDS_P1;SDS_P2;PMS_P1;PMS_P2;Temp;Humidity;BMP_temperature;BMP_pressure;BME280_temperature;BME280_humidity;BME280_pressure;Samples;Min_cycle;Max_cycle;Signal;HPM_P1;HPM_P2
2021/08/21 00:00:22;;;;;;;1.50;1.50;;;;;;;14.78;84.77;101163.84;6337294;28;20183;-77
2021/08/21 00:03:28;;;;;;;1.60;1.60;;;;;;;14.87;83.90;101156.94;6337732;28;20298;-77
2021/08/21 00:06:32;;;;;;;3.13;1.70;;;;;;;14.80;84.26;101161.69;6337259;28;20183;-76
2021/08/21 00:09:37;;;;;;;1.50;1.40;;;;;;;14.86;83.85;101165.41;6338276;28;20228;-77
2021/08/21 00:12:42;;;;;;;2.78;1.38;;;;;;;14.86;84.33;101160.75;6338171;28;20187;-76
2021/08/21 00:15:47;;;;;;;3.10;1.45;;;;;;;14.82;84.06;101164.19;6336592;28;20470;-77
2021/08/21 00:18:57;;;;;;;1.40;1.40;;;;;;;14.83;83.78;101166.72;6337933;28;20246;-77
2021/08/21 00:22:01;;;;;;;1.27;1.27;;;;;;;14.75;84.17;101164.31;6336450;28;20218;-76
2021/08/21 00:25:06;;;;;;;6.22;1.55;;;;;;;14.76;83.83;101165.16;6336366;28;20537;-77
2021/08/21 00:28:13;;;;;;;1.75;1.40;;;;;;;14.74;84.02;101162.63;6337214;28;20183;-77
2021/08/21 00:31:17;;;;;;;1.63;1.40;;;;;;;14.77;83.55;101173.16;6337387;28;20253;-77
2021/08/21 00:34:25;;;;;;;4.88;1.40;;;;;;;14.77;83.34;101167.66;6336003;28;20412;-76
2021/08/21 00:37:30;;;;;;;1.95;1.40;;;;;;;14.71;83.72;101165.88;6337357;28;20187;-77
2021/08/21 00:40:34;;;;;;;1.40;1.40;;;;;;;14.67;84.29;101166.56;6337386;28;20246;-77
2021/08/21 00:43:39;;;;;;;10.15;1.40;;;;;;;14.71;83.90;101176.88;6337505;28;20210;-76
2021/08/21 00:46:59;;;;;;;1.73;1.63;;;;;;;14.67;83.49;101183.88;6336649;28;20371;-77
2021/08/21 00:50:05;;;;;;;2.35;1.50;;;;;;;14.73;83.02;101187.59;6336385;28;20183;-77
2021/08/21 00:53:13;;;;;;;4.68;1.45;;;;;;;14.63;83.28;101188.19;6337247;28;20222;-77
2021/08/21 00:56:18;;;;;;;4.57;1.33;;;;;;;14.58;83.96;101185.31;6318511;28;20203;-77
2021/08/21 00:59:25;;;;;;;1.30;1.30;;;;;;;14.63;82.97;101174.47;6318084;28;20536;-77
2021/08/21 01:02:33;;;;;;;1.40;1.40;;;;;;;14.54;82.90;101184.09;6335890;28;20581;-77
2021/08/21 01:05:39;;;;;;;2.05;1.42;;;;;;;14.65;81.86;101186.03;6336828;28;20194;-77
2021/08/21 01:08:43;;;;;;;2.28;1.10;;;;;;;14.64;81.85;101181.59;6318063;28;20468;-77
2021/08/21 01:11:48;;;;;;;3.25;1.35;;;;;;;14.61;82.90;101184.81;6317943;28;20198;-77
2021/08/21 01:14:53;;;;;;;1.45;1.42;;;;;;;14.65;82.22;101190.69;6318179;28;20202;-77
2021/08/21 01:17:57;;;;;;;1.23;1.23;;;;;;;14.39;82.44;101191.91;6336329;28;20229;-77
2021/08/21 01:21:04;;;;;;;1.20;1.20;;;;;;;14.44;81.28;101197.56;6319052;28;20240;-77
2021/08/21 01:24:08;;;;;;;5.18;1.20;;;;;;;14.45;81.57;101201.97;6317765;28;20229;-77
2021/08/21 01:27:18;;;;;;;1.10;1.10;;;;;;;14.25;82.24;101206.88;6317948;28;20446;-77
2021/08/21 01:30:38;;;;;;;3.10;1.38;;;;;;;14.38;80.54;101206.72;6318035;28;20486;-77
2021/08/21 01:33:54;;;;;;;2.33;1.30;;;;;;;14.39;80.74;101202.91;6318214;28;20534;-77
2021/08/21 01:36:59;;;;;;;1.30;1.20;;;;;;;14.43;80.86;101215.09;6337142;28;20183;-77
2021/08/21 01:40:24;;;;;;;1.35;1.27;;;;;;;14.29;79.70;101213.56;6337117;28;20224;-77
2021/08/21 01:43:29;;;;;;;1.40;1.40;;;;;;;14.28;79.01;101218.22;6317588;28;20222;-77
2021/08/21 01:46:38;;;;;;;1.05;1.05;;;;;;;14.31;78.97;101222.44;6320108;28;20183;-77
2021/08/21 01:49:43;;;;;;;1.20;1.20;;;;;;;14.18;78.23;101219.84;6322394;28;20391;-77
2021/08/21 01:52:49;;;;;;;1.10;1.08;;;;;;;14.09;77.72;101215.75;6341140;28;20256;-77
2021/08/21 01:56:04;;;;;;;1.25;1.20;;;;;;;14.26;78.67;101225.84;6322186;28;20383;-77
2021/08/21 01:59:32;;;;;;;1.10;1.10;;;;;;;14.28;78.13;101217.38;6322737;28;20230;-77
2021/08/21 02:02:57;;;;;;;5.30;1.05;;;;;;;14.26;77.57;101225.00;6321847;28;20258;-77
2021/08/21 02:06:12;;;;;;;1.10;1.08;;;;;;;14.15;77.83;101228.56;6322051;28;20199;-77
2021/08/21 02:09:20;;;;;;;1.13;1.00;;;;;;;14.01;77.93;101238.00;6322646;28;20198;-77
2021/08/21 02:12:26;;;;;;;1.27;0.93;;;;;;;14.11;78.05;101236.41;6340697;28;20183;-77
2021/08/21 02:15:39;;;;;;;2.20;1.13;;;;;;;14.11;77.68;101232.81;6322923;28;20209;-77
2021/08/21 02:18:43;;;;;;;0.90;0.90;;;;;;;14.11;77.58;101230.06;6322518;28;20198;-77
2021/08/21 02:22:11;;;;;;;1.20;1.20;;;;;;;14.14;77.47;101241.44;6322665;28;20198;-77
2021/08/21 02:25:18;;;;;;;1.02;1.02;;;;;;;14.02;77.23;101234.22;6321421;28;20230;-77
2021/08/21 02:28:24;;;;;;;0.90;0.90;;;;;;;14.14;77.21;101243.34;6321433;28;20237;-77
2021/08/21 02:31:30;;;;;;;0.85;0.85;;;;;;;14.06;77.89;101229.94;6322449;28;20198;-77
2021/08/21 02:34:34;;;;;;;1.00;1.00;;;;;;;14.20;77.38;101231.44;6321375;28;20275;-77
2021/08/21 02:37:38;;;;;;;0.80;0.80;;;;;;;14.16;77.04;101241.19;6321734;28;20198;-77
2021/08/21 02:40:42;;;;;;;1.00;1.00;;;;;;;14.29;77.00;101230.03;6338827;28;20550;-77
2021/08/21 02:43:47;;;;;;;1.38;0.90;;;;;;;14.32;76.72;101240.59;6339526;28;20425;-77
2021/08/21 02:46:54;;;;;;;0.80;0.80;;;;;;;14.33;76.28;101237.59;6321440;28;20493;-77
2021/08/21 02:50:01;;;;;;;0.98;0.98;;;;;;;14.41;76.27;101239.19;6340054;28;20218;-77
2021/08/21 02:53:05;;;;;;;1.00;1.00;;;;;;;14.35;77.30;101240.13;6338558;28;20470;-77
2021/08/21 02:56:11;;;;;;;1.00;1.00;;;;;;;14.36;76.15;101247.28;6320506;28;20225;-77
2021/08/21 02:59:15;;;;;;;0.82;0.82;;;;;;;14.34;77.73;101239.28;6320009;28;20266;-77
2021/08/21 03:02:24;;;;;;;0.98;0.98;;;;;;;14.28;76.75;101247.56;6320748;28;20556;-77
2021/08/21 03:05:31;;;;;;;2.28;0.80;;;;;;;14.17;77.01;101248.38;6320817;28;20218;-77
2021/08/21 03:08:37;;;;;;;0.90;0.90;;;;;;;14.29;76.97;101252.00;6320830;28;20205;-77
2021/08/21 03:11:44;;;;;;;1.38;0.90;;;;;;;14.21;77.62;101249.56;6320487;28;20522;-77
2021/08/21 03:15:06;;;;;;;1.15;0.90;;;;;;;14.26;78.18;101246.97;6320265;28;20234;-77
2021/08/21 03:18:17;;;;;;;1.85;0.82;;;;;;;14.28;78.55;101250.31;6321540;28;20183;-77
2021/08/21 03:21:27;;;;;;;1.30;0.90;;;;;;;14.15;78.79;101250.50;6320431;28;20517;-77
2021/08/21 03:24:31;;;;;;;0.90;0.90;;;;;;;14.22;78.57;101262.22;6320299;28;20307;-77
2021/08/21 03:27:35;;;;;;;1.65;0.90;;;;;;;14.15;78.68;101258.75;6339188;28;20190;-77
2021/08/21 03:30:41;;;;;;;0.80;0.80;;;;;;;14.19;78.56;101259.94;6339223;28;20182;-77
2021/08/21 03:33:57;;;;;;;0.80;0.80;;;;;;;14.18;79.34;101271.97;6319190;28;20266;-77
2021/08/21 03:37:01;;;;;;;1.42;0.90;;;;;;;14.15;78.92;101266.97;6338725;28;20187;-77
2021/08/21 03:40:11;;;;;;;0.98;0.98;;;;;;;14.13;79.16;101274.56;6320075;28;20198;-77
2021/08/21 03:43:18;;;;;;;3.53;1.08;;;;;;;14.08;79.38;101277.16;6337457;28;20324;-77
2021/08/21 03:46:23;;;;;;;0.70;0.70;;;;;;;14.05;79.02;101277.63;6319810;28;20552;-77
2021/08/21 03:49:29;;;;;;;1.20;0.95;;;;;;;14.09;78.98;101284.34;6337276;28;20422;-77
2021/08/21 03:52:33;;;;;;;0.80;0.80;;;;;;;14.18;78.73;101277.47;6319180;28;20228;-77
2021/08/21 03:55:37;;;;;;;0.77;0.77;;;;;;;14.20;79.27;101280.84;6319432;28;20252;-77
2021/08/21 03:58:41;;;;;;;0.70;0.70;;;;;;;14.18;79.37;101282.94;6337222;28;20354;-77
2021/08/21 04:01:47;;;;;;;0.80;0.80;;;;;;;14.10;79.26;101288.75;6338094;28;20289;-77
2021/08/21 04:05:11;;;;;;;0.82;0.82;;;;;;;14.01;79.04;101287.38;6319288;28;20477;-77
2021/08/21 04:08:15;;;;;;;0.80;0.80;;;;;;;13.99;79.00;101295.00;6318879;28;20198;-77
2021/08/21 04:11:22;;;;;;;0.77;0.77;;;;;;;14.08;77.93;101293.63;6318341;28;20206;-77
2021/08/21 04:14:42;;;;;;;0.90;0.90;;;;;;;13.96;78.14;101307.28;6318809;28;20209;-77
2021/08/21 04:17:48;;;;;;;0.70;0.70;;;;;;;14.00;77.61;101303.00;6319112;28;20502;-77
2021/08/21 04:20:55;;;;;;;0.63;0.63;;;;;;;14.15;77.41;101310.88;6336135;28;20209;-77
2021/08/21 04:24:02;;;;;;;0.68;0.68;;;;;;;14.09;77.30;101298.06;6320654;28;20190;-77
2021/08/21 04:27:09;;;;;;;0.75;0.75;;;;;;;13.99;79.05;101306.00;6320426;28;20214;-77
2021/08/21 04:30:15;;;;;;;0.70;0.70;;;;;;;13.96;77.56;101317.41;6319703;28;20198;-77
2021/08/21 04:33:21;;;;;;;0.70;0.70;;;;;;;13.88;77.25;101310.31;6318794;28;20198;-77
2021/08/21 04:36:27;;;;;;;0.63;0.63;;;;;;;14.01;76.40;101312.94;6318920;28;20498;-77
2021/08/21 04:39:31;;;;;;;0.80;0.80;;;;;;;13.99;75.56;101328.78;6318710;28;20262;-77
2021/08/21 04:42:36;;;;;;;0.77;0.77;;;;;;;13.91;75.56;101325.50;6319022;28;20501;-77
2021/08/21 04:45:40;;;;;;;0.80;0.80;;;;;;;13.87;74.54;101318.78;6337642;28;20217;-77
2021/08/21 04:48:45;;;;;;;0.60;0.60;;;;;;;13.98;74.62;101326.25;6320583;28;20199;-77
2021/08/21 04:51:50;;;;;;;0.70;0.70;;;;;;;13.92;73.93;101321.69;6320340;28;20206;-77
2021/08/21 04:54:57;;;;;;;1.33;0.70;;;;;;;13.98;72.33;101324.34;6320548;28;20278;-77
2021/08/21 04:58:02;;;;;;;0.75;0.60;;;;;;;13.95;73.68;101329.44;6319802;28;20261;-77
2021/08/21 05:01:08;;;;;;;0.70;0.70;;;;;;;14.09;73.56;101331.84;6337632;28;20230;-77
2021/08/21 05:04:18;;;;;;;0.60;0.60;;;;;;;14.04;73.79;101339.06;6319270;28;20230;-77
2021/08/21 05:07:25;;;;;;;0.60;0.60;;;;;;;14.08;72.39;101334.78;6319056;28;20291;-77
2021/08/21 05:10:30;;;;;;;1.65;0.63;;;;;;;14.05;71.72;101344.31;6318247;28;20287;-77
2021/08/21 05:13:35;;;;;;;0.70;0.70;;;;;;;14.15;72.72;101350.09;6322101;28;20198;-77
2021/08/21 05:16:45;;;;;;;1.33;0.50;;;;;;;14.18;73.05;101351.56;6321187;28;20320;-77
2021/08/21 05:20:15;;;;;;;0.60;0.60;;;;;;;14.21;73.45;101353.84;6339339;28;20187;-77
2021/08/21 05:23:35;;;;;;;0.68;0.68;;;;;;;14.09;70.80;101361.16;6323602;28;20350;-77
2021/08/21 05:26:40;;;;;;;0.60;0.60;;;;;;;14.24;71.12;101353.41;6323246;28;20226;-77
2021/08/21 05:29:45;;;;;;;0.57;0.57;;;;;;;14.15;71.68;101354.78;6340643;28;20183;-77
2021/08/21 05:32:49;;;;;;;0.50;0.50;;;;;;;14.14;70.70;101353.09;6340732;28;20348;-77
2021/08/21 05:35:54;;;;;;;0.70;0.70;;;;;;;14.22;70.60;101363.78;6341607;28;20186;-77
2021/08/21 05:39:00;;;;;;;0.60;0.60;;;;;;;14.31;70.90;101357.78;6340541;28;20585;-77
2021/08/21 05:42:06;;;;;;;0.50;0.50;;;;;;;14.16;69.77;101361.94;6340286;28;20483;-77
2021/08/21 05:45:11;;;;;;;0.57;0.57;;;;;;;14.36;70.00;101359.81;6341306;28;20183;-77
2021/08/21 05:48:15;;;;;;;0.52;0.52;;;;;;;14.20;69.76;101369.47;6340022;28;20210;-77
2021/08/21 05:51:19;;;;;;;0.95;0.65;;;;;;;14.30;69.55;101358.78;6341291;28;20215;-77
2021/08/21 05:54:25;;;;;;;0.55;0.55;;;;;;;14.42;69.45;101378.13;6339983;28;20183;-77
2021/08/21 05:57:29;;;;;;;0.68;0.68;;;;;;;14.45;69.12;101379.59;6341369;28;20254;-76
2021/08/21 06:00:33;;;;;;;0.60;0.60;;;;;;;14.37;67.79;101369.75;6340515;28;20214;-77
2021/08/21 06:03:37;;;;;;;0.60;0.60;;;;;;;14.48;68.52;101373.63;6340742;28;20241;-77
2021/08/21 06:06:41;;;;;;;0.68;0.60;;;;;;;14.45;68.14;101372.19;6340825;28;20210;-77
2021/08/21 06:09:48;;;;;;;0.60;0.60;;;;;;;14.54;67.80;101375.44;6322754;28;20206;-77
2021/08/21 06:12:53;;;;;;;0.50;0.50;;;;;;;14.65;68.48;101383.78;6321541;28;20492;-76
2021/08/21 06:15:57;;;;;;;0.60;0.60;;;;;;;14.67;69.18;101376.13;6340606;28;20195;-76
2021/08/21 06:19:01;;;;;;;0.60;0.60;;;;;;;14.68;67.88;101376.97;6340193;28;20214;-76
2021/08/21 06:22:06;;;;;;;0.55;0.55;;;;;;;14.75;67.81;101381.31;6340332;28;20245;-77
2021/08/21 06:25:14;;;;;;;0.60;0.60;;;;;;;14.78;67.09;101385.50;6340484;28;20183;-76
2021/08/21 06:28:18;;;;;;;0.80;0.68;;;;;;;14.90;67.70;101381.75;6339209;28;20518;-77
2021/08/21 06:31:24;;;;;;;1.55;0.70;;;;;;;14.88;66.02;101389.38;6340542;28;20190;-77
2021/08/21 06:34:28;;;;;;;0.98;0.55;;;;;;;14.83;65.61;101391.97;6339119;28;20183;-76
2021/08/21 06:37:32;;;;;;;0.60;0.60;;;;;;;15.11;65.25;101387.78;6341361;28;20277;-78
2021/08/21 06:40:38;;;;;;;0.47;0.47;;;;;;;15.01;63.74;101393.84;6341207;28;20253;-77
2021/08/21 06:43:42;;;;;;;0.70;0.70;;;;;;;15.16;63.65;101385.19;6339315;28;20440;-77
2021/08/21 06:46:50;;;;;;;1.70;0.50;;;;;;;15.47;64.39;101401.44;6340284;28;20274;-77
2021/08/21 06:49:54;;;;;;;1.38;0.57;;;;;;;15.57;63.60;101402.53;6340315;28;20190;-76
2021/08/21 06:53:01;;;;;;;0.60;0.60;;;;;;;15.76;63.26;101403.31;6339368;28;20190;-77
2021/08/21 06:56:11;;;;;;;0.52;0.52;;;;;;;15.68;61.72;101409.16;6338932;28;20191;-77
2021/08/21 06:59:15;;;;;;;1.65;0.57;;;;;;;15.86;61.99;101406.31;6340012;28;20194;-78
2021/08/21 07:02:19;;;;;;;0.60;0.60;;;;;;;16.03;62.80;101404.50;6338829;28;20258;-78
2021/08/21 07:05:23;;;;;;;0.70;0.70;;;;;;;16.04;62.71;101406.19;6339483;28;20252;-77
2021/08/21 07:08:29;;;;;;;0.70;0.70;;;;;;;16.11;62.61;101417.91;6339378;28;20218;-77
2021/08/21 07:11:35;;;;;;;0.60;0.60;;;;;;;16.26;61.93;101415.50;6339514;28;20259;-77
2021/08/21 07:14:39;;;;;;;0.90;0.90;;;;;;;16.11;59.94;101415.16;6338594;28;20225;-77
2021/08/21 07:17:43;;;;;;;0.77;0.77;;;;;;;16.11;60.11;101420.66;6338695;28;20524;-77
2021/08/21 07:20:47;;;;;;;1.40;0.68;;;;;;;16.34;60.41;101424.47;6338736;28;20190;-77
2021/08/21 07:23:54;;;;;;;0.55;0.55;;;;;;;16.33;61.05;101428.31;6340067;28;20183;-77
2021/08/21 07:27:03;;;;;;;5.07;0.60;;;;;;;16.43;61.06;101434.91;6340595;28;20403;-78
2021/08/21 07:30:09;;;;;;;0.77;0.60;;;;;;;16.55;60.83;101427.50;6340380;28;20282;-78
2021/08/21 07:33:17;;;;;;;1.45;0.70;;;;;;;16.54;60.61;101424.97;6340438;28;20194;-78
2021/08/21 07:36:21;;;;;;;0.50;0.50;;;;;;;16.60;60.10;101432.25;6341416;28;20190;-77
2021/08/21 07:39:27;;;;;;;0.70;0.70;;;;;;;16.45;58.74;101429.16;6339005;28;20356;-77
2021/08/21 07:42:32;;;;;;;0.55;0.55;;;;;;;16.40;58.79;101437.28;6339744;28;20490;-78
2021/08/21 07:45:36;;;;;;;1.85;0.63;;;;;;;16.36;59.35;101438.88;6339301;28;20283;-78
2021/08/21 07:48:41;;;;;;;0.50;0.50;;;;;;;16.27;58.38;101444.72;6339389;28;20211;-77
2021/08/21 07:51:45;;;;;;;0.65;0.65;;;;;;;16.15;60.80;101445.81;6340302;28;20183;-78
2021/08/21 07:54:49;;;;;;;0.80;0.80;;;;;;;16.25;59.13;101427.59;6338699;28;20361;-78
2021/08/21 07:57:55;;;;;;;2.90;0.60;;;;;;;16.32;60.42;101435.75;6339240;28;20187;-77
2021/08/21 08:01:02;;;;;;;0.60;0.60;;;;;;;16.31;59.27;101441.50;6338647;28;20198;-78
2021/08/21 08:04:06;;;;;;;0.65;0.65;;;;;;;16.41;60.49;101444.50;6337176;28;20183;-78
2021/08/21 08:07:11;;;;;;;1.33;0.50;;;;;;;16.41;58.53;101444.50;6338001;28;20332;-78
2021/08/21 08:10:15;;;;;;;0.50;0.50;;;;;;;16.43;58.82;101443.16;6340779;28;20182;-78
2021/08/21 08:13:20;;;;;;;0.50;0.50;;;;;;;16.39;59.17;101446.63;6339185;28;20439;-80
2021/08/21 08:16:24;;;;;;;0.50;0.50;;;;;;;16.40;59.90;101443.66;6338776;28;20186;-79
2021/08/21 08:19:29;;;;;;;0.68;0.68;;;;;;;16.39;59.11;101457.63;6340163;28;20496;-78
2021/08/21 08:22:33;;;;;;;0.50;0.50;;;;;;;16.43;57.72;101454.19;6339189;28;20183;-76
2021/08/21 08:25:37;;;;;;;0.77;0.77;;;;;;;16.40;59.52;101464.84;6339377;28;20229;-78
2021/08/21 08:28:42;;;;;;;0.50;0.50;;;;;;;16.59;59.20;101470.00;6338946;28;20245;-77
2021/08/21 08:31:47;;;;;;;0.68;0.68;;;;;;;16.61;59.10;101467.00;6338547;28;20221;-80
2021/08/21 08:34:51;;;;;;;0.57;0.50;;;;;;;16.65;59.72;101473.69;6340959;28;20218;-78
2021/08/21 08:37:55;;;;;;;0.68;0.68;;;;;;;16.58;57.22;101470.25;6339604;28;20194;-79
2021/08/21 08:41:02;;;;;;;0.57;0.57;;;;;;;16.52;57.74;101471.16;6339937;28;20183;-79
2021/08/21 08:44:10;;;;;;;0.65;0.50;;;;;;;16.71;58.08;101483.78;6340616;28;20455;-79
2021/08/21 08:47:19;;;;;;;0.75;0.75;;;;;;;16.54;56.42;101477.28;6337965;28;20206;-77
2021/08/21 08:50:23;;;;;;;0.60;0.60;;;;;;;16.55;57.84;101484.50;6336579;28;20368;-77
2021/08/21 08:53:27;;;;;;;0.70;0.70;;;;;;;16.62;56.66;101479.69;6338726;28;20261;-77
2021/08/21 08:56:34;;;;;;;0.70;0.70;;;;;;;16.73;59.01;101487.13;6339586;28;20224;-78
2021/08/21 08:59:40;;;;;;;2.55;0.70;;;;;;;16.87;57.82;101477.53;6343635;28;20222;-78
2021/08/21 09:02:46;;;;;;;0.68;0.50;;;;;;;16.90;57.50;101483.34;6343561;28;20234;-77
2021/08/21 09:05:52;;;;;;;0.60;0.60;;;;;;;16.76;56.05;101481.97;6343980;28;20220;-78
2021/08/21 09:09:10;;;;;;;0.63;0.63;;;;;;;16.76;56.80;101481.13;6342979;28;20506;-78
2021/08/21 09:12:24;;;;;;;0.60;0.60;;;;;;;16.72;57.56;101491.78;6343213;28;20221;-78
2021/08/21 09:15:31;;;;;;;0.60;0.60;;;;;;;16.66;58.47;101483.66;6343079;28;20375;-80
2021/08/21 09:18:35;;;;;;;2.17;0.80;;;;;;;16.76;58.55;101489.38;6342031;28;20191;-80
2021/08/21 09:21:59;;;;;;;0.65;0.65;;;;;;;16.81;58.19;101484.00;6325923;28;20383;-80
2021/08/21 09:25:04;;;;;;;0.60;0.60;;;;;;;16.84;58.21;101505.56;6344003;28;20183;-77
2021/08/21 09:28:16;;;;;;;3.15;0.75;;;;;;;16.75;57.08;101495.97;6341304;28;20273;-80
2021/08/21 09:31:23;;;;;;;0.50;0.50;;;;;;;16.71;55.60;101492.03;6344305;28;20189;-78
2021/08/21 09:34:27;;;;;;;0.60;0.60;;;;;;;16.75;57.03;101498.72;6344879;28;20260;-79
2021/08/21 09:37:46;;;;;;;0.60;0.60;;;;;;;16.66;55.11;101502.94;6343487;28;20343;-77
2021/08/21 09:40:57;;;;;;;0.60;0.60;;;;;;;16.72;55.84;101493.69;6342733;28;20251;-78
2021/08/21 09:44:06;;;;;;;0.63;0.63;;;;;;;16.69;55.63;101483.19;6341779;28;20348;-78
2021/08/21 09:47:22;;;;;;;0.60;0.60;;;;;;;16.75;55.80;101498.72;6341412;28;20249;-77
2021/08/21 09:50:26;;;;;;;2.90;0.70;;;;;;;16.77;57.26;101499.31;6340050;28;20572;-77
2021/08/21 09:53:36;;;;;;;0.60;0.60;;;;;;;16.79;58.26;101502.69;6342113;28;20190;-77
2021/08/21 09:56:44;;;;;;;0.60;0.60;;;;;;;16.84;57.62;101502.81;6342291;28;20190;-77
2021/08/21 09:59:56;;;;;;;0.77;0.77;;;;;;;16.80;56.42;101501.59;6343007;28;20415;-77
2021/08/21 10:03:04;;;;;;;0.80;0.80;;;;;;;16.86;56.36;101506.16;6341919;28;20548;-77
2021/08/21 10:06:08;;;;;;;0.60;0.60;;;;;;;16.86;57.99;101504.22;6340837;28;20190;-77
2021/08/21 10:09:12;;;;;;;0.80;0.80;;;;;;;16.87;57.72;101510.59;6340525;28;20210;-77
2021/08/21 10:12:20;;;;;;;0.70;0.70;;;;;;;16.95;55.09;101512.94;6340560;28;20421;-77
2021/08/21 10:15:26;;;;;;;0.70;0.70;;;;;;;17.06;57.00;101508.50;6342177;28;20183;-77
2021/08/21 10:18:32;;;;;;;0.70;0.70;;;;;;;17.07;55.40;101508.25;6342353;28;20198;-77
2021/08/21 10:21:36;;;;;;;1.10;0.60;;;;;;;17.12;54.93;101502.84;6341262;28;20183;-77
2021/08/21 10:24:47;;;;;;;0.80;0.80;;;;;;;17.19;53.40;101511.81;6340331;28;20250;-77
2021/08/21 10:27:58;;;;;;;0.63;0.63;;;;;;;17.19;55.78;101514.56;6340024;28;20474;-79
2021/08/21 10:31:02;;;;;;;2.15;1.90;;;;;;;17.25;54.67;101513.63;6339760;28;20300;-77
2021/08/21 10:34:09;;;;;;;0.80;0.80;;;;;;;17.30;53.45;101519.22;6340395;28;20182;-77
2021/08/21 10:37:32;;;;;;;0.70;0.70;;;;;;;17.36;53.88;101515.47;6339634;28;20378;-77
2021/08/21 10:40:39;;;;;;;0.95;0.70;;;;;;;17.45;53.83;101513.16;6340707;28;20209;-79
2021/08/21 10:43:44;;;;;;;0.60;0.60;;;;;;;17.53;54.89;101518.34;6339336;28;20443;-78
2021/08/21 10:46:54;;;;;;;4.90;0.80;;;;;;;17.62;55.29;101518.75;6339114;28;20375;-77
2021/08/21 10:50:01;;;;;;;0.82;0.80;;;;;;;17.52;53.05;101520.25;6340433;28;20211;-78
2021/08/21 10:53:06;;;;;;;0.68;0.68;;;;;;;17.67;53.82;101521.63;6340027;28;20252;-78
2021/08/21 10:56:33;;;;;;;1.60;0.77;;;;;;;17.70;52.07;101530.25;6339669;28;20189;-77
2021/08/21 10:59:41;;;;;;;4.60;0.88;;;;;;;17.82;53.02;101531.00;6339795;28;20226;-78
2021/08/21 11:02:45;;;;;;;0.90;0.90;;;;;;;17.84;52.53;101528.03;6339202;28;20235;-78
2021/08/21 11:05:53;;;;;;;0.90;0.90;;;;;;;17.82;52.77;101525.50;6339147;28;20183;-77
2021/08/21 11:09:00;;;;;;;1.63;0.90;;;;;;;17.88;52.62;101529.19;6338549;28;20378;-77
2021/08/21 11:12:06;;;;;;;1.00;0.70;;;;;;;18.00;52.81;101543.78;6339014;28;20183;-78
2021/08/21 11:15:15;;;;;;;0.65;0.65;;;;;;;18.01;51.73;101545.44;6339238;28;20183;-78
2021/08/21 11:18:21;;;;;;;0.70;0.70;;;;;;;18.02;51.25;101541.59;6339091;28;20183;-77
2021/08/21 11:21:35;;;;;;;0.90;0.90;;;;;;;18.11;50.56;101534.56;6339253;28;20217;-78
2021/08/21 11:24:56;;;;;;;0.70;0.70;;;;;;;18.18;51.80;101540.75;6340806;28;20378;-77
2021/08/21 11:28:05;;;;;;;0.80;0.80;;;;;;;18.32;50.88;101531.06;6340141;28;20781;-78
2021/08/21 11:31:11;;;;;;;1.13;0.90;;;;;;;18.37;51.29;101536.69;6341432;28;20274;-77
2021/08/21 11:34:16;;;;;;;3.92;0.80;;;;;;;18.37;50.03;101539.44;6338341;28;20488;-77
2021/08/21 11:37:22;;;;;;;0.88;0.88;;;;;;;18.41;50.72;101540.59;6338580;28;20259;-77
2021/08/21 11:40:35;;;;;;;0.80;0.77;;;;;;;18.49;51.21;101542.97;6339040;28;20187;-77
2021/08/21 11:43:41;;;;;;;0.70;0.70;;;;;;;18.59;50.45;101532.06;6337607;28;20184;-77
2021/08/21 11:47:04;;;;;;;0.73;0.73;;;;;;;18.70;49.70;101539.44;6338342;28;20187;-76
2021/08/21 11:50:29;;;;;;;1.73;0.73;;;;;;;18.77;48.73;101543.97;6337684;28;20207;-76
2021/08/21 11:53:40;;;;;;;0.80;0.80;;;;;;;18.88;49.34;101540.22;6337929;28;20252;-77
2021/08/21 11:56:57;;;;;;;1.42;0.60;;;;;;;18.77;49.09;101532.91;6336867;28;20426;-77
2021/08/21 12:00:12;;;;;;;0.70;0.70;;;;;;;18.81;48.65;101550.66;6337866;28;20261;-76
2021/08/21 12:03:32;;;;;;;1.67;0.98;;;;;;;18.74;49.37;101545.31;6337461;28;20292;-77
2021/08/21 12:06:37;;;;;;;0.90;0.90;;;;;;;18.77;49.72;101555.88;6339717;28;20182;-78
2021/08/21 12:09:57;;;;;;;0.90;0.90;;;;;;;18.81;49.24;101561.69;6319755;28;20253;-77
2021/08/21 12:13:01;;;;;;;0.75;0.75;;;;;;;18.85;49.94;101551.81;6337931;28;20183;-77
2021/08/21 12:16:07;;;;;;;6.88;4.03;;;;;;;18.93;50.51;101562.44;6339084;28;20182;-77
2021/08/21 12:19:12;;;;;;;0.88;0.88;;;;;;;18.84;47.75;101552.91;6339092;28;20194;-77
2021/08/21 12:22:16;;;;;;;1.08;0.70;;;;;;;18.86;48.62;101547.94;6337708;28;20187;-76
2021/08/21 12:25:22;;;;;;;0.88;0.85;;;;;;;18.89;49.58;101566.81;6337999;28;20221;-76
2021/08/21 12:28:34;;;;;;;0.73;0.73;;;;;;;18.83;50.00;101549.28;6337523;28;20187;-76
2021/08/21 12:31:40;;;;;;;0.88;0.88;;;;;;;18.88;48.57;101565.97;6336289;28;20207;-76
2021/08/21 12:34:44;;;;;;;0.80;0.80;;;;;;;18.79;47.88;101555.59;6336921;28;20550;-77
2021/08/21 12:38:02;;;;;;;0.80;0.80;;;;;;;18.83;46.15;101559.50;6338891;28;20205;-78
2021/08/21 12:41:13;;;;;;;1.55;0.80;;;;;;;18.72;46.75;101564.88;6337626;28;20187;-77
2021/08/21 12:44:24;;;;;;;1.02;0.90;;;;;;;18.91;47.53;101561.84;6336426;28;20442;-77
2021/08/21 12:47:36;;;;;;;0.70;0.70;;;;;;;18.92;47.33;101553.31;6337734;28;20226;-77
2021/08/21 12:50:41;;;;;;;0.80;0.80;;;;;;;19.08;48.39;101562.66;6338883;28;20211;-78
2021/08/21 12:53:45;;;;;;;1.90;0.90;;;;;;;19.10;48.54;101566.84;6338870;28;20214;-77
2021/08/21 12:57:09;;;;;;;0.88;0.82;;;;;;;19.23;47.58;101565.63;6337924;28;20250;-78
2021/08/21 13:00:19;;;;;;;1.02;0.90;;;;;;;19.14;44.92;101583.75;6337996;28;20191;-78
2021/08/21 13:03:24;;;;;;;0.80;0.80;;;;;;;19.02;44.52;101569.22;6338035;28;20222;-77
2021/08/21 13:06:28;;;;;;;1.05;0.73;;;;;;;19.12;45.68;101572.13;6337617;28;20183;-77
2021/08/21 13:09:33;;;;;;;0.57;0.57;;;;;;;19.02;45.04;101569.22;6337766;28;20270;-77
2021/08/21 13:12:41;;;;;;;0.70;0.70;;;;;;;19.08;46.79;101560.72;6337757;28;20407;-77
2021/08/21 13:15:46;;;;;;;0.70;0.70;;;;;;;19.20;47.08;101566.97;6337230;28;20206;-77
2021/08/21 13:18:53;;;;;;;1.55;0.80;;;;;;;19.27;46.78;101566.78;6335414;28;20466;-77
2021/08/21 13:21:59;;;;;;;0.80;0.80;;;;;;;19.32;46.84;101570.44;6336890;28;20187;-76
2021/08/21 13:25:07;;;;;;;0.80;0.80;;;;;;;19.38;45.50;101567.78;6335538;28;20214;-77
2021/08/21 13:28:13;;;;;;;0.80;0.80;;;;;;;19.47;46.83;101569.81;6335939;28;20183;-77
2021/08/21 13:31:17;;;;;;;0.60;0.60;;;;;;;19.61;45.69;101578.59;6336783;28;20286;-77
2021/08/21 13:34:21;;;;;;;0.77;0.77;;;;;;;19.46;44.99;101565.41;6335374;28;20183;-77
2021/08/21 13:37:26;;;;;;;2.10;1.02;;;;;;;19.55;46.69;101563.84;6336820;28;20190;-77
2021/08/21 13:40:31;;;;;;;1.65;0.70;;;;;;;19.38;45.28;101579.69;6335880;28;20399;-77
2021/08/21 13:43:36;;;;;;;0.70;0.70;;;;;;;19.48;45.28;101571.50;6340206;28;20264;-77
2021/08/21 13:46:43;;;;;;;0.80;0.80;;;;;;;19.62;45.69;101564.47;6340827;28;20258;-76
2021/08/21 13:49:47;;;;;;;0.60;0.60;;;;;;;19.74;45.81;101556.88;6340700;28;20250;-76
2021/08/21 13:52:51;;;;;;;0.60;0.60;;;;;;;19.79;45.76;101570.78;6339717;28;20237;-76
2021/08/21 13:55:55;;;;;;;1.05;0.68;;;;;;;19.71;45.81;101579.53;6340704;28;20187;-76
2021/08/21 13:59:03;;;;;;;1.85;0.70;;;;;;;19.38;45.58;101589.91;6340530;28;20190;-76
2021/08/21 14:02:07;;;;;;;0.88;0.80;;;;;;;19.34;45.30;101589.56;6340436;28;20268;-77
2021/08/21 14:05:12;;;;;;;0.70;0.70;;;;;;;19.10;44.74;101615.78;6339520;28;20466;-77
2021/08/21 14:08:16;;;;;;;0.75;0.75;;;;;;;18.99;44.81;101591.84;6341626;28;20228;-78
2021/08/21 14:11:20;;;;;;;0.70;0.70;;;;;;;18.88;44.97;101603.81;6342689;28;20217;-78
2021/08/21 14:14:26;;;;;;;0.75;0.75;;;;;;;18.98;44.95;101601.22;6340399;28;20183;-77
2021/08/21 14:17:30;;;;;;;0.93;0.90;;;;;;;19.10;45.90;101611.09;6340755;28;20189;-77
2021/08/21 14:20:35;;;;;;;0.90;0.90;;;;;;;19.13;46.53;101612.53;6341172;28;20183;-77
2021/08/21 14:23:39;;;;;;;0.60;0.60;;;;;;;19.09;46.05;101619.63;6340273;28;20183;-77
2021/08/21 14:26:45;;;;;;;0.70;0.70;;;;;;;19.13;46.25;101623.59;6340553;28;20183;-78
2021/08/21 14:29:52;;;;;;;2.13;0.90;;;;;;;19.00;46.75;101626.72;6339435;28;20462;-77